Details From LFBD - Bordeaux Merignac
To LFBM - MONT DE MARSAN
Flight Number -
Tags decoded
Created
Modified
Stats Distance 82 nm / 152 km
Max Altitude 0 ft / 0 m
Waypoints 4
Social Downloads 3
Likes 0
Share VATSIM

Download

Looking for another format? Having issues loading an existing format? Contact us
Advertisement - Login to hide

Notes

Requested: LFBD LFDC LFBC LFIL LFBM

Route

LFBD LFBC LFIL LFBM

ID Type Via Altitude (ft/m) Position (lat/lon) Dist (leg/tot) Name
O LFBD APT - 0 / 0 44.82876 / -0.71476 - / 0 nm Bordeaux Merignac
LFBC APT - 0 / 0 44.53402 / -1.12535 24 / 24 nm CAZAUX
LFIL APT - 0 / 0 43.91488 / -0.95019 37 / 62 nm Rion Des Landes
O LFBM APT - 0 / 0 43.91150 / -0.50937 19 / 81 nm MONT DE MARSAN

Altitude Profile

Advertisement - Login to hide

LFBD

Details ICAO LFBD (BOD)
Name Bordeaux Merignac
Region France
Timezone Europe/Paris (UTC+1.0)
Stats Elevation 166 ft / 51 m (AMSL)
Location 44.828800° -0.714756°
Runways 2
Magnetic Variation 0.058° E

METAR

LFBD 092330Z AUTO 25005KT 9999 BKN028 BKN033 08/07 Q1033 NOSIG

Decode

TAF

TAF LFBD 091700Z 0918/1024 26015G25KT 9999 BKN030 TX13/1013Z TN07/1006Z TEMPO 0918/0920 -RA BKN020TCU BECMG 0918/0920 29010KT BECMG 1000/1003 VRB03KT TEMPO 1003/1006 MIFG

Decode

Departure Runways

ID Width Length Bearing (true/mag) Surface Threshold Overrun Markings Lighting
05 148 ft / 45 m 10,164 ft / 3,098 m 45.48° / 45.42° ASPHALT 26 ft / 8 m 1,145 ft / 349 m APP CENTERLINE EDGE THRESHOLD REIL-UNI
11 148 ft / 45 m 7,931 ft / 2,417 m 106.45° / 106.39° ASPHALT 26 ft / 8 m 1,198 ft / 365 m APP EDGE THRESHOLD REIL-UNI
23 148 ft / 45 m 10,164 ft / 3,098 m 225.50° / 225.44° ASPHALT 39 ft / 12 m 1,266 ft / 386 m APP CENTERLINE EDGE THRESHOLD CALVERT TDZ REIL-UNI
29 148 ft / 45 m 7,931 ft / 2,417 m 286.47° / 286.41° ASPHALT 33 ft / 10 m 1,201 ft / 366 m PREC-APP EDGE THRESHOLD REIL-UNI

LFBM

Details ICAO LFBM
Name MONT DE MARSAN
Region France
Timezone Europe/Paris (UTC+1.0)
Stats Elevation 203 ft / 62 m (AMSL)
Location 43.911500° -0.509371°
Runways 1
Magnetic Variation 0.165° E

METAR

LFBM 092330Z AUTO 24003KT 9999 FEW024 BKN040 BKN046 09/08 Q1033 NOSIG

Decode

TAF

TAF TAF LFBM 092000Z 0921/1021 26006KT 9999 SCT045 PROB30 TEMPO 1004/1007 2000 BR

Decode

Destination Runways

ID Width Length Bearing (true/mag) Surface Threshold Overrun Markings Lighting
09 148 ft / 45 m 11,795 ft / 3,595 m 87.19° / 87.03° ASPHALT 0 ft / 0 m 1,328 ft / 405 m PREC-APP EDGE THRESHOLD REIL-OMNI
27 148 ft / 45 m 11,795 ft / 3,595 m 267.22° / 267.06° ASPHALT 364 ft / 111 m 0 ft / 0 m PREC-APP EDGE THRESHOLD MALS

Approach Navaids

Runway Type Ident Frequency Range Bearing (true/mag) Slope Elevation
27 GS MDM 110.50 MHz 10 nm / 19 km 267.41° / 267.25 ° 3.00° 250 ft / 76 m (AMSL)
27 OM OM - - 267.21° / 267.04 ° - 203 ft / 62 m (AMSL)
27 MM MM - - 267.21° / 267.04 ° - 203 ft / 62 m (AMSL)
27 LOC-ILS MDM 110.50 MHz 18 nm / 33 km 267.19° / 267.02 ° - 220 ft / 67 m (AMSL)

Popular Alternatives